sensor_id;sensor_type;location;lat;lon;timestamp;P1;durP1;ratioP1;P2;durP2;ratioP2
2784;SDS011;57944;48.722;9.316;2022-10-16T00:02:08;6.17;;;3.50;;
2784;SDS011;57944;48.722;9.316;2022-10-16T00:04:38;4.80;;;3.53;;
2784;SDS011;57944;48.722;9.316;2022-10-16T00:07:10;9.13;;;3.50;;
2784;SDS011;57944;48.722;9.316;2022-10-16T00:09:40;7.40;;;3.20;;
2784;SDS011;57944;48.722;9.316;2022-10-16T00:12:11;9.13;;;3.80;;
2784;SDS011;57944;48.722;9.316;2022-10-16T00:14:41;5.10;;;3.10;;
2784;SDS011;57944;48.722;9.316;2022-10-16T00:17:11;7.00;;;3.57;;
2784;SDS011;57944;48.722;9.316;2022-10-16T00:19:41;7.20;;;3.20;;
2784;SDS011;57944;48.722;9.316;2022-10-16T00:22:14;5.57;;;3.40;;
2784;SDS011;57944;48.722;9.316;2022-10-16T00:24:44;9.60;;;3.43;;
2784;SDS011;57944;48.722;9.316;2022-10-16T00:27:14;5.13;;;3.40;;
2784;SDS011;57944;48.722;9.316;2022-10-16T00:29:44;5.30;;;3.40;;
2784;SDS011;57944;48.722;9.316;2022-10-16T00:32:18;5.43;;;3.23;;
2784;SDS011;57944;48.722;9.316;2022-10-16T00:34:49;5.27;;;3.03;;
2784;SDS011;57944;48.722;9.316;2022-10-16T00:37:23;5.53;;;3.73;;
2784;SDS011;57944;48.722;9.316;2022-10-16T00:39:53;5.60;;;3.07;;
2784;SDS011;57944;48.722;9.316;2022-10-16T00:42:23;5.43;;;3.20;;
2784;SDS011;57944;48.722;9.316;2022-10-16T00:44:55;8.83;;;4.40;;
2784;SDS011;57944;48.722;9.316;2022-10-16T00:47:26;6.30;;;4.40;;
2784;SDS011;57944;48.722;9.316;2022-10-16T00:50:02;5.23;;;3.80;;
2784;SDS011;57944;48.722;9.316;2022-10-16T00:52:44;4.60;;;3.53;;
2784;SDS011;57944;48.722;9.316;2022-10-16T00:55:18;6.10;;;3.73;;
2784;SDS011;57944;48.722;9.316;2022-10-16T00:57:48;7.83;;;3.80;;
2784;SDS011;57944;48.722;9.316;2022-10-16T01:00:22;5.83;;;3.90;;
2784;SDS011;57944;48.722;9.316;2022-10-16T01:02:56;5.53;;;4.03;;
2784;SDS011;57944;48.722;9.316;2022-10-16T01:05:31;7.63;;;3.70;;
2784;SDS011;57944;48.722;9.316;2022-10-16T01:08:12;5.20;;;3.20;;
2784;SDS011;57944;48.722;9.316;2022-10-16T01:10:52;7.67;;;3.73;;
2784;SDS011;57944;48.722;9.316;2022-10-16T01:13:30;7.07;;;3.33;;
2784;SDS011;57944;48.722;9.316;2022-10-16T01:16:08;4.60;;;3.20;;
2784;SDS011;57944;48.722;9.316;2022-10-16T01:18:45;5.53;;;4.03;;
2784;SDS011;57944;48.722;9.316;2022-10-16T01:21:24;11.87;;;3.50;;
2784;SDS011;57944;48.722;9.316;2022-10-16T01:24:06;6.00;;;4.10;;
2784;SDS011;57944;48.722;9.316;2022-10-16T01:26:59;7.23;;;4.30;;
2784;SDS011;57944;48.722;9.316;2022-10-16T01:29:52;6.80;;;4.17;;
2784;SDS011;57944;48.722;9.316;2022-10-16T01:32:31;6.03;;;3.77;;
2784;SDS011;57944;48.722;9.316;2022-10-16T01:35:09;8.03;;;4.40;;
2784;SDS011;57944;48.722;9.316;2022-10-16T01:37:44;6.37;;;3.70;;
2784;SDS011;57944;48.722;9.316;2022-10-16T01:40:22;6.13;;;4.17;;
2784;SDS011;57944;48.722;9.316;2022-10-16T01:42:59;8.30;;;3.77;;
2784;SDS011;57944;48.722;9.316;2022-10-16T01:45:34;6.40;;;4.20;;
2784;SDS011;57944;48.722;9.316;2022-10-16T01:48:05;4.23;;;3.17;;
2784;SDS011;57944;48.722;9.316;2022-10-16T01:50:39;8.40;;;4.10;;
2784;SDS011;57944;48.722;9.316;2022-10-16T01:53:18;9.03;;;5.00;;
2784;SDS011;57944;48.722;9.316;2022-10-16T01:55:50;5.20;;;3.80;;
2784;SDS011;57944;48.722;9.316;2022-10-16T01:58:27;5.10;;;3.57;;
2784;SDS011;57944;48.722;9.316;2022-10-16T02:01:03;7.50;;;4.57;;
2784;SDS011;57944;48.722;9.316;2022-10-16T02:03:39;7.63;;;3.70;;
2784;SDS011;57944;48.722;9.316;2022-10-16T02:06:12;12.80;;;3.80;;
2784;SDS011;57944;48.722;9.316;2022-10-16T02:08:42;7.50;;;4.20;;
2784;SDS011;57944;48.722;9.316;2022-10-16T02:11:13;4.87;;;3.80;;
2784;SDS011;57944;48.722;9.316;2022-10-16T02:13:46;8.13;;;4.60;;
2784;SDS011;57944;48.722;9.316;2022-10-16T02:16:32;7.67;;;4.43;;
2784;SDS011;57944;48.722;9.316;2022-10-16T02:19:05;5.20;;;3.37;;
2784;SDS011;57944;48.722;9.316;2022-10-16T02:21:38;12.20;;;4.90;;
2784;SDS011;57944;48.722;9.316;2022-10-16T02:24:15;7.90;;;4.47;;
2784;SDS011;57944;48.722;9.316;2022-10-16T02:26:57;6.30;;;4.30;;
2784;SDS011;57944;48.722;9.316;2022-10-16T02:29:42;8.03;;;4.43;;
2784;SDS011;57944;48.722;9.316;2022-10-16T02:32:21;7.10;;;3.80;;
2784;SDS011;57944;48.722;9.316;2022-10-16T02:34:57;6.30;;;4.17;;
2784;SDS011;57944;48.722;9.316;2022-10-16T02:37:29;8.13;;;4.47;;
2784;SDS011;57944;48.722;9.316;2022-10-16T02:40:01;10.10;;;4.53;;
2784;SDS011;57944;48.722;9.316;2022-10-16T02:42:33;7.40;;;4.40;;
2784;SDS011;57944;48.722;9.316;2022-10-16T02:45:10;5.70;;;4.30;;
2784;SDS011;57944;48.722;9.316;2022-10-16T02:47:40;11.33;;;3.90;;
2784;SDS011;57944;48.722;9.316;2022-10-16T02:50:10;7.07;;;4.00;;
2784;SDS011;57944;48.722;9.316;2022-10-16T02:52:40;5.07;;;3.60;;
2784;SDS011;57944;48.722;9.316;2022-10-16T02:55:11;6.27;;;4.07;;
2784;SDS011;57944;48.722;9.316;2022-10-16T02:57:41;7.23;;;3.87;;
2784;SDS011;57944;48.722;9.316;2022-10-16T03:00:14;5.90;;;3.50;;
2784;SDS011;57944;48.722;9.316;2022-10-16T03:02:46;7.77;;;3.63;;
2784;SDS011;57944;48.722;9.316;2022-10-16T03:05:17;5.13;;;3.20;;
2784;SDS011;57944;48.722;9.316;2022-10-16T03:08:07;7.70;;;3.67;;
2784;SDS011;57944;48.722;9.316;2022-10-16T03:10:37;7.70;;;3.70;;
2784;SDS011;57944;48.722;9.316;2022-10-16T03:13:07;6.17;;;4.33;;
2784;SDS011;57944;48.722;9.316;2022-10-16T03:15:39;10.00;;;4.07;;
2784;SDS011;57944;48.722;9.316;2022-10-16T03:18:09;9.10;;;4.00;;
2784;SDS011;57944;48.722;9.316;2022-10-16T03:20:39;5.40;;;3.97;;
2784;SDS011;57944;48.722;9.316;2022-10-16T03:23:10;5.10;;;4.33;;
2784;SDS011;57944;48.722;9.316;2022-10-16T03:25:40;10.30;;;4.80;;
2784;SDS011;57944;48.722;9.316;2022-10-16T03:28:13;5.20;;;3.97;;
2784;SDS011;57944;48.722;9.316;2022-10-16T03:30:46;6.87;;;3.77;;
2784;SDS011;57944;48.722;9.316;2022-10-16T03:33:17;7.60;;;4.37;;
2784;SDS011;57944;48.722;9.316;2022-10-16T03:35:50;6.70;;;3.97;;
2784;SDS011;57944;48.722;9.316;2022-10-16T03:38:22;4.60;;;3.63;;
2784;SDS011;57944;48.722;9.316;2022-10-16T03:40:52;7.40;;;3.50;;
2784;SDS011;57944;48.722;9.316;2022-10-16T03:43:22;14.03;;;3.80;;
2784;SDS011;57944;48.722;9.316;2022-10-16T03:45:55;5.50;;;4.07;;
2784;SDS011;57944;48.722;9.316;2022-10-16T03:48:25;10.03;;;3.80;;
2784;SDS011;57944;48.722;9.316;2022-10-16T03:50:55;6.17;;;3.90;;
2784;SDS011;57944;48.722;9.316;2022-10-16T03:53:25;8.17;;;4.37;;
2784;SDS011;57944;48.722;9.316;2022-10-16T03:55:55;6.30;;;4.80;;
2784;SDS011;57944;48.722;9.316;2022-10-16T03:58:25;24.37;;;7.03;;
2784;SDS011;57944;48.722;9.316;2022-10-16T04:00:58;8.07;;;4.33;;
2784;SDS011;57944;48.722;9.316;2022-10-16T04:03:28;5.63;;;3.83;;
2784;SDS011;57944;48.722;9.316;2022-10-16T04:05:58;6.57;;;3.70;;
2784;SDS011;57944;48.722;9.316;2022-10-16T04:08:28;4.50;;;3.47;;
2784;SDS011;57944;48.722;9.316;2022-10-16T04:11:00;5.80;;;3.40;;
2784;SDS011;57944;48.722;9.316;2022-10-16T04:13:30;7.20;;;3.57;;
2784;SDS011;57944;48.722;9.316;2022-10-16T04:16:03;6.10;;;3.40;;
2784;SDS011;57944;48.722;9.316;2022-10-16T04:18:33;6.63;;;3.23;;
2784;SDS011;57944;48.722;9.316;2022-10-16T04:21:04;9.60;;;4.00;;
2784;SDS011;57944;48.722;9.316;2022-10-16T04:23:35;8.20;;;4.13;;
2784;SDS011;57944;48.722;9.316;2022-10-16T04:26:05;7.33;;;4.47;;
2784;SDS011;57944;48.722;9.316;2022-10-16T04:28:36;9.77;;;3.87;;
2784;SDS011;57944;48.722;9.316;2022-10-16T04:31:09;5.03;;;4.17;;
2784;SDS011;57944;48.722;9.316;2022-10-16T04:33:41;5.27;;;3.40;;
2784;SDS011;57944;48.722;9.316;2022-10-16T04:36:11;7.97;;;3.40;;
2784;SDS011;57944;48.722;9.316;2022-10-16T04:38:42;5.33;;;3.47;;
2784;SDS011;57944;48.722;9.316;2022-10-16T04:41:12;6.30;;;3.70;;
2784;SDS011;57944;48.722;9.316;2022-10-16T04:43:42;4.53;;;3.00;;
2784;SDS011;57944;48.722;9.316;2022-10-16T04:46:14;4.43;;;3.33;;
2784;SDS011;57944;48.722;9.316;2022-10-16T04:48:44;8.30;;;3.70;;
2784;SDS011;57944;48.722;9.316;2022-10-16T04:51:14;7.83;;;3.33;;
2784;SDS011;57944;48.722;9.316;2022-10-16T04:53:45;6.07;;;4.10;;
2784;SDS011;57944;48.722;9.316;2022-10-16T04:56:15;4.63;;;3.30;;
2784;SDS011;57944;48.722;9.316;2022-10-16T04:58:45;5.83;;;3.83;;
2784;SDS011;57944;48.722;9.316;2022-10-16T05:01:18;5.83;;;3.40;;
2784;SDS011;57944;48.722;9.316;2022-10-16T05:03:48;8.60;;;3.73;;
2784;SDS011;57944;48.722;9.316;2022-10-16T05:06:18;6.20;;;4.47;;
2784;SDS011;57944;48.722;9.316;2022-10-16T05:08:48;6.87;;;3.93;;
2784;SDS011;57944;48.722;9.316;2022-10-16T05:11:18;5.10;;;3.50;;
2784;SDS011;57944;48.722;9.316;2022-10-16T05:13:48;8.17;;;4.63;;
2784;SDS011;57944;48.722;9.316;2022-10-16T05:16:23;5.00;;;3.20;;
2784;SDS011;57944;48.722;9.316;2022-10-16T05:18:53;5.73;;;3.70;;
2784;SDS011;57944;48.722;9.316;2022-10-16T05:21:43;9.50;;;4.07;;
2784;SDS011;57944;48.722;9.316;2022-10-16T05:24:14;7.83;;;3.73;;
2784;SDS011;57944;48.722;9.316;2022-10-16T05:26:44;4.63;;;3.07;;
2784;SDS011;57944;48.722;9.316;2022-10-16T05:29:14;6.67;;;4.20;;
2784;SDS011;57944;48.722;9.316;2022-10-16T05:31:49;7.00;;;4.00;;
2784;SDS011;57944;48.722;9.316;2022-10-16T05:34:21;5.33;;;4.00;;
2784;SDS011;57944;48.722;9.316;2022-10-16T05:36:51;8.07;;;3.83;;
2784;SDS011;57944;48.722;9.316;2022-10-16T05:39:21;6.90;;;4.10;;
2784;SDS011;57944;48.722;9.316;2022-10-16T05:41:51;8.00;;;4.27;;
2784;SDS011;57944;48.722;9.316;2022-10-16T05:44:21;4.73;;;3.53;;
2784;SDS011;57944;48.722;9.316;2022-10-16T05:46:53;7.30;;;3.87;;
2784;SDS011;57944;48.722;9.316;2022-10-16T05:49:23;16.47;;;4.90;;
2784;SDS011;57944;48.722;9.316;2022-10-16T05:51:53;5.43;;;3.60;;
2784;SDS011;57944;48.722;9.316;2022-10-16T05:54:24;8.77;;;5.87;;
2784;SDS011;57944;48.722;9.316;2022-10-16T05:56:54;9.00;;;4.20;;
2784;SDS011;57944;48.722;9.316;2022-10-16T05:59:24;6.90;;;4.50;;
2784;SDS011;57944;48.722;9.316;2022-10-16T06:01:56;7.67;;;4.33;;
2784;SDS011;57944;48.722;9.316;2022-10-16T06:04:26;9.33;;;4.77;;
2784;SDS011;57944;48.722;9.316;2022-10-16T06:06:57;6.40;;;4.53;;
2784;SDS011;57944;48.722;9.316;2022-10-16T06:09:29;9.30;;;5.20;;
2784;SDS011;57944;48.722;9.316;2022-10-16T06:11:59;10.33;;;6.23;;
2784;SDS011;57944;48.722;9.316;2022-10-16T06:14:29;9.20;;;5.23;;
2784;SDS011;57944;48.722;9.316;2022-10-16T06:17:02;9.90;;;5.73;;
2784;SDS011;57944;48.722;9.316;2022-10-16T06:19:32;9.17;;;5.90;;
2784;SDS011;57944;48.722;9.316;2022-10-16T06:22:02;13.03;;;5.57;;
2784;SDS011;57944;48.722;9.316;2022-10-16T06:24:32;6.10;;;5.00;;
2784;SDS011;57944;48.722;9.316;2022-10-16T06:27:02;6.50;;;4.93;;
2784;SDS011;57944;48.722;9.316;2022-10-16T06:29:33;16.80;;;6.40;;
2784;SDS011;57944;48.722;9.316;2022-10-16T06:32:07;9.40;;;5.50;;
2784;SDS011;57944;48.722;9.316;2022-10-16T06:34:37;8.13;;;5.83;;
2784;SDS011;57944;48.722;9.316;2022-10-16T06:37:09;7.90;;;5.30;;
2784;SDS011;57944;48.722;9.316;2022-10-16T06:39:39;10.00;;;5.30;;
2784;SDS011;57944;48.722;9.316;2022-10-16T06:42:09;6.83;;;4.93;;
2784;SDS011;57944;48.722;9.316;2022-10-16T06:44:40;10.00;;;5.40;;
2784;SDS011;57944;48.722;9.316;2022-10-16T06:47:12;8.70;;;5.00;;
2784;SDS011;57944;48.722;9.316;2022-10-16T06:49:42;8.37;;;4.90;;
2784;SDS011;57944;48.722;9.316;2022-10-16T06:52:19;6.57;;;4.70;;
2784;SDS011;57944;48.722;9.316;2022-10-16T06:54:50;8.33;;;4.60;;
2784;SDS011;57944;48.722;9.316;2022-10-16T06:57:20;9.17;;;4.00;;
2784;SDS011;57944;48.722;9.316;2022-10-16T06:59:50;6.90;;;4.10;;
2784;SDS011;57944;48.722;9.316;2022-10-16T07:02:23;4.37;;;3.40;;
2784;SDS011;57944;48.722;9.316;2022-10-16T07:04:54;5.27;;;3.80;;
2784;SDS011;57944;48.722;9.316;2022-10-16T07:07:24;10.30;;;3.57;;
2784;SDS011;57944;48.722;9.316;2022-10-16T07:09:54;5.53;;;3.90;;
2784;SDS011;57944;48.722;9.316;2022-10-16T07:12:24;6.20;;;3.70;;
2784;SDS011;57944;48.722;9.316;2022-10-16T07:14:54;7.30;;;4.83;;
2784;SDS011;57944;48.722;9.316;2022-10-16T07:17:27;11.77;;;4.07;;
2784;SDS011;57944;48.722;9.316;2022-10-16T07:19:57;9.33;;;5.70;;
2784;SDS011;57944;48.722;9.316;2022-10-16T07:22:28;7.17;;;4.23;;
2784;SDS011;57944;48.722;9.316;2022-10-16T07:24:58;6.43;;;3.90;;
2784;SDS011;57944;48.722;9.316;2022-10-16T07:27:28;7.73;;;4.77;;
2784;SDS011;57944;48.722;9.316;2022-10-16T07:29:59;7.57;;;3.67;;
2784;SDS011;57944;48.722;9.316;2022-10-16T07:32:37;7.00;;;4.13;;
2784;SDS011;57944;48.722;9.316;2022-10-16T07:35:07;9.77;;;3.97;;
2784;SDS011;57944;48.722;9.316;2022-10-16T07:37:37;7.63;;;4.10;;
2784;SDS011;57944;48.722;9.316;2022-10-16T07:40:08;6.33;;;3.30;;
2784;SDS011;57944;48.722;9.316;2022-10-16T07:42:39;5.43;;;3.77;;
2784;SDS011;57944;48.722;9.316;2022-10-16T07:45:09;12.00;;;4.87;;
2784;SDS011;57944;48.722;9.316;2022-10-16T07:47:42;6.77;;;3.60;;
2784;SDS011;57944;48.722;9.316;2022-10-16T07:50:12;7.57;;;4.43;;
2784;SDS011;57944;48.722;9.316;2022-10-16T07:52:42;6.67;;;3.77;;
2784;SDS011;57944;48.722;9.316;2022-10-16T07:55:12;4.70;;;2.97;;
2784;SDS011;57944;48.722;9.316;2022-10-16T07:57:42;4.90;;;3.30;;
2784;SDS011;57944;48.722;9.316;2022-10-16T08:00:12;4.87;;;4.07;;
2784;SDS011;57944;48.722;9.316;2022-10-16T08:02:45;6.87;;;3.37;;
2784;SDS011;57944;48.722;9.316;2022-10-16T08:05:16;6.53;;;3.50;;
2784;SDS011;57944;48.722;9.316;2022-10-16T08:07:48;7.00;;;3.70;;
2784;SDS011;57944;48.722;9.316;2022-10-16T08:10:18;6.93;;;4.20;;
2784;SDS011;57944;48.722;9.316;2022-10-16T08:12:51;8.63;;;3.73;;
2784;SDS011;57944;48.722;9.316;2022-10-16T08:15:22;5.20;;;2.90;;
2784;SDS011;57944;48.722;9.316;2022-10-16T08:17:58;12.93;;;4.00;;
2784;SDS011;57944;48.722;9.316;2022-10-16T08:20:31;10.37;;;3.73;;
2784;SDS011;57944;48.722;9.316;2022-10-16T08:23:02;6.90;;;3.37;;
2784;SDS011;57944;48.722;9.316;2022-10-16T08:25:35;10.03;;;3.70;;
2784;SDS011;57944;48.722;9.316;2022-10-16T08:28:06;6.37;;;3.43;;
2784;SDS011;57944;48.722;9.316;2022-10-16T08:30:38;10.93;;;3.33;;
2784;SDS011;57944;48.722;9.316;2022-10-16T08:33:11;9.00;;;3.87;;
2784;SDS011;57944;48.722;9.316;2022-10-16T08:35:41;10.27;;;3.57;;
2784;SDS011;57944;48.722;9.316;2022-10-16T08:38:11;6.30;;;3.00;;
2784;SDS011;57944;48.722;9.316;2022-10-16T08:40:41;8.17;;;3.20;;
2784;SDS011;57944;48.722;9.316;2022-10-16T08:43:24;6.40;;;2.97;;
2784;SDS011;57944;48.722;9.316;2022-10-16T08:46:19;5.93;;;3.03;;
2784;SDS011;57944;48.722;9.316;2022-10-16T08:49:17;9.20;;;2.60;;
2784;SDS011;57944;48.722;9.316;2022-10-16T08:51:47;4.50;;;2.20;;
2784;SDS011;57944;48.722;9.316;2022-10-16T08:54:22;6.00;;;3.60;;
2784;SDS011;57944;48.722;9.316;2022-10-16T08:57:14;10.57;;;3.23;;
2784;SDS011;57944;48.722;9.316;2022-10-16T08:59:50;16.30;;;3.93;;
2784;SDS011;57944;48.722;9.316;2022-10-16T09:02:24;17.57;;;3.97;;
2784;SDS011;57944;48.722;9.316;2022-10-16T09:08:19;10.13;;;3.17;;
2784;SDS011;57944;48.722;9.316;2022-10-16T09:11:02;5.03;;;2.93;;
2784;SDS011;57944;48.722;9.316;2022-10-16T09:13:45;13.37;;;3.80;;
2784;SDS011;57944;48.722;9.316;2022-10-16T09:16:25;10.90;;;2.93;;
2784;SDS011;57944;48.722;9.316;2022-10-16T09:19:04;6.37;;;2.70;;
2784;SDS011;57944;48.722;9.316;2022-10-16T09:21:46;10.00;;;4.30;;
2784;SDS011;57944;48.722;9.316;2022-10-16T09:24:20;5.57;;;3.00;;
2784;SDS011;57944;48.722;9.316;2022-10-16T09:26:54;8.20;;;3.07;;
2784;SDS011;57944;48.722;9.316;2022-10-16T09:29:25;5.57;;;2.97;;
2784;SDS011;57944;48.722;9.316;2022-10-16T09:31:55;7.40;;;2.80;;
2784;SDS011;57944;48.722;9.316;2022-10-16T09:34:41;8.70;;;3.20;;
2784;SDS011;57944;48.722;9.316;2022-10-16T09:37:20;9.67;;;3.20;;
2784;SDS011;57944;48.722;9.316;2022-10-16T09:39:54;5.70;;;3.20;;
2784;SDS011;57944;48.722;9.316;2022-10-16T09:42:32;5.83;;;3.00;;
2784;SDS011;57944;48.722;9.316;2022-10-16T09:45:18;10.77;;;3.20;;
2784;SDS011;57944;48.722;9.316;2022-10-16T09:47:53;13.03;;;3.87;;
2784;SDS011;57944;48.722;9.316;2022-10-16T09:50:24;8.03;;;3.17;;
2784;SDS011;57944;48.722;9.316;2022-10-16T09:53:08;6.20;;;3.07;;
2784;SDS011;57944;48.722;9.316;2022-10-16T09:55:50;7.50;;;3.50;;
2784;SDS011;57944;48.722;9.316;2022-10-16T09:58:21;4.77;;;3.57;;
2784;SDS011;57944;48.722;9.316;2022-10-16T10:00:53;6.87;;;3.10;;
2784;SDS011;57944;48.722;9.316;2022-10-16T10:03:30;7.20;;;2.80;;
2784;SDS011;57944;48.722;9.316;2022-10-16T10:06:15;14.57;;;3.70;;
2784;SDS011;57944;48.722;9.316;2022-10-16T10:09:04;7.50;;;3.70;;
2784;SDS011;57944;48.722;9.316;2022-10-16T10:11:50;7.23;;;3.20;;
2784;SDS011;57944;48.722;9.316;2022-10-16T10:14:24;4.60;;;3.00;;
2784;SDS011;57944;48.722;9.316;2022-10-16T10:17:10;5.93;;;3.03;;
2784;SDS011;57944;48.722;9.316;2022-10-16T10:19:47;9.70;;;3.20;;
2784;SDS011;57944;48.722;9.316;2022-10-16T10:22:25;6.70;;;2.77;;
2784;SDS011;57944;48.722;9.316;2022-10-16T10:25:07;12.33;;;3.33;;
2784;SDS011;57944;48.722;9.316;2022-10-16T10:27:57;8.13;;;3.90;;
2784;SDS011;57944;48.722;9.316;2022-10-16T10:30:54;9.13;;;3.50;;
2784;SDS011;57944;48.722;9.316;2022-10-16T10:33:34;7.93;;;2.97;;
2784;SDS011;57944;48.722;9.316;2022-10-16T10:36:22;5.03;;;3.27;;
2784;SDS011;57944;48.722;9.316;2022-10-16T10:38:59;6.33;;;3.27;;
2784;SDS011;57944;48.722;9.316;2022-10-16T10:44:56;10.20;;;4.40;;
2784;SDS011;57944;48.722;9.316;2022-10-16T10:47:48;6.60;;;2.83;;
2784;SDS011;57944;48.722;9.316;2022-10-16T10:50:47;7.80;;;3.80;;
2784;SDS011;57944;48.722;9.316;2022-10-16T10:53:29;4.40;;;3.20;;
2784;SDS011;57944;48.722;9.316;2022-10-16T10:56:15;17.60;;;3.57;;
2784;SDS011;57944;48.722;9.316;2022-10-16T10:59:12;14.20;;;3.00;;
2784;SDS011;57944;48.722;9.316;2022-10-16T11:02:23;7.90;;;2.90;;
2784;SDS011;57944;48.722;9.316;2022-10-16T11:05:13;26.53;;;3.83;;
2784;SDS011;57944;48.722;9.316;2022-10-16T11:08:00;5.30;;;2.63;;
2784;SDS011;57944;48.722;9.316;2022-10-16T11:10:41;6.13;;;2.63;;
2784;SDS011;57944;48.722;9.316;2022-10-16T11:13:23;11.47;;;2.47;;
2784;SDS011;57944;48.722;9.316;2022-10-16T11:16:07;9.17;;;2.43;;
2784;SDS011;57944;48.722;9.316;2022-10-16T11:18:49;4.63;;;2.67;;
2784;SDS011;57944;48.722;9.316;2022-10-16T11:21:29;4.90;;;2.63;;
2784;SDS011;57944;48.722;9.316;2022-10-16T11:24:10;9.60;;;2.53;;
2784;SDS011;57944;48.722;9.316;2022-10-16T11:26:50;7.77;;;3.50;;
2784;SDS011;57944;48.722;9.316;2022-10-16T11:29:25;3.90;;;2.57;;
2784;SDS011;57944;48.722;9.316;2022-10-16T11:32:04;11.10;;;3.87;;
2784;SDS011;57944;48.722;9.316;2022-10-16T11:34:49;7.30;;;2.43;;
2784;SDS011;57944;48.722;9.316;2022-10-16T11:37:30;6.20;;;2.60;;
2784;SDS011;57944;48.722;9.316;2022-10-16T11:40:15;5.17;;;2.73;;
2784;SDS011;57944;48.722;9.316;2022-10-16T11:42:54;5.73;;;2.60;;
2784;SDS011;57944;48.722;9.316;2022-10-16T11:45:55;6.67;;;2.07;;
2784;SDS011;57944;48.722;9.316;2022-10-16T11:48:38;4.13;;;2.60;;
2784;SDS011;57944;48.722;9.316;2022-10-16T11:51:19;4.80;;;2.43;;
2784;SDS011;57944;48.722;9.316;2022-10-16T11:54:02;4.03;;;2.40;;
2784;SDS011;57944;48.722;9.316;2022-10-16T11:56:48;3.70;;;2.30;;
2784;SDS011;57944;48.722;9.316;2022-10-16T11:59:25;6.47;;;2.60;;
2784;SDS011;57944;48.722;9.316;2022-10-16T12:02:12;8.57;;;3.10;;
2784;SDS011;57944;48.722;9.316;2022-10-16T12:05:11;4.43;;;2.20;;
2784;SDS011;57944;48.722;9.316;2022-10-16T12:07:55;3.83;;;2.00;;
2784;SDS011;57944;48.722;9.316;2022-10-16T12:10:39;28.83;;;4.50;;
2784;SDS011;57944;48.722;9.316;2022-10-16T12:13:28;3.27;;;2.73;;
2784;SDS011;57944;48.722;9.316;2022-10-16T12:16:05;3.80;;;2.07;;
2784;SDS011;57944;48.722;9.316;2022-10-16T12:19:03;10.23;;;2.73;;
2784;SDS011;57944;48.722;9.316;2022-10-16T12:21:45;4.70;;;2.30;;
2784;SDS011;57944;48.722;9.316;2022-10-16T12:24:27;5.47;;;2.50;;
2784;SDS011;57944;48.722;9.316;2022-10-16T12:27:05;9.60;;;2.43;;
2784;SDS011;57944;48.722;9.316;2022-10-16T12:29:54;4.23;;;2.70;;
2784;SDS011;57944;48.722;9.316;2022-10-16T12:32:29;7.10;;;2.00;;
2784;SDS011;57944;48.722;9.316;2022-10-16T12:35:19;8.07;;;4.90;;
2784;SDS011;57944;48.722;9.316;2022-10-16T12:38:03;8.40;;;2.57;;
2784;SDS011;57944;48.722;9.316;2022-10-16T12:40:44;3.90;;;2.20;;
2784;SDS011;57944;48.722;9.316;2022-10-16T12:43:25;7.13;;;2.40;;
2784;SDS011;57944;48.722;9.316;2022-10-16T12:46:20;3.50;;;2.13;;
2784;SDS011;57944;48.722;9.316;2022-10-16T12:49:06;5.30;;;1.90;;
2784;SDS011;57944;48.722;9.316;2022-10-16T12:51:58;4.23;;;2.07;;
2784;SDS011;57944;48.722;9.316;2022-10-16T12:54:31;6.17;;;2.53;;
2784;SDS011;57944;48.722;9.316;2022-10-16T12:57:10;4.73;;;2.90;;
2784;SDS011;57944;48.722;9.316;2022-10-16T13:00:06;4.73;;;2.77;;
2784;SDS011;57944;48.722;9.316;2022-10-16T13:02:54;4.40;;;1.80;;
2784;SDS011;57944;48.722;9.316;2022-10-16T13:06:10;5.30;;;2.73;;
2784;SDS011;57944;48.722;9.316;2022-10-16T13:12:23;4.50;;;2.80;;
2784;SDS011;57944;48.722;9.316;2022-10-16T13:15:24;8.93;;;2.60;;
2784;SDS011;57944;48.722;9.316;2022-10-16T13:18:13;8.63;;;4.87;;
2784;SDS011;57944;48.722;9.316;2022-10-16T13:20:53;6.70;;;2.10;;
2784;SDS011;57944;48.722;9.316;2022-10-16T13:23:36;4.47;;;2.60;;
2784;SDS011;57944;48.722;9.316;2022-10-16T13:26:21;6.67;;;3.00;;
2784;SDS011;57944;48.722;9.316;2022-10-16T13:29:03;6.33;;;2.17;;
2784;SDS011;57944;48.722;9.316;2022-10-16T13:31:33;4.83;;;2.40;;
2784;SDS011;57944;48.722;9.316;2022-10-16T13:34:10;4.57;;;2.37;;
2784;SDS011;57944;48.722;9.316;2022-10-16T13:36:46;4.50;;;2.23;;
2784;SDS011;57944;48.722;9.316;2022-10-16T13:39:21;3.57;;;2.40;;
2784;SDS011;57944;48.722;9.316;2022-10-16T13:42:06;4.13;;;2.57;;
2784;SDS011;57944;48.722;9.316;2022-10-16T13:44:48;9.23;;;2.20;;
2784;SDS011;57944;48.722;9.316;2022-10-16T13:47:22;3.70;;;2.40;;
2784;SDS011;57944;48.722;9.316;2022-10-16T13:49:59;3.47;;;2.03;;
2784;SDS011;57944;48.722;9.316;2022-10-16T13:52:31;4.83;;;2.27;;
2784;SDS011;57944;48.722;9.316;2022-10-16T13:55:01;4.20;;;1.83;;
2784;SDS011;57944;48.722;9.316;2022-10-16T13:57:35;7.03;;;3.27;;
2784;SDS011;57944;48.722;9.316;2022-10-16T14:00:17;10.53;;;4.23;;
2784;SDS011;57944;48.722;9.316;2022-10-16T14:02:51;6.07;;;3.00;;
2784;SDS011;57944;48.722;9.316;2022-10-16T14:05:29;3.63;;;2.40;;
2784;SDS011;57944;48.722;9.316;2022-10-16T14:08:00;5.03;;;2.73;;
2784;SDS011;57944;48.722;9.316;2022-10-16T14:10:31;5.30;;;3.00;;
2784;SDS011;57944;48.722;9.316;2022-10-16T14:13:05;4.00;;;2.83;;
2784;SDS011;57944;48.722;9.316;2022-10-16T14:15:45;6.47;;;3.40;;
2784;SDS011;57944;48.722;9.316;2022-10-16T14:18:21;5.00;;;2.87;;
2784;SDS011;57944;48.722;9.316;2022-10-16T14:21:05;4.20;;;2.73;;
2784;SDS011;57944;48.722;9.316;2022-10-16T14:23:41;15.73;;;3.03;;
2784;SDS011;57944;48.722;9.316;2022-10-16T14:26:13;13.57;;;6.10;;
2784;SDS011;57944;48.722;9.316;2022-10-16T14:29:00;5.30;;;3.00;;
2784;SDS011;57944;48.722;9.316;2022-10-16T14:31:40;10.10;;;4.30;;
2784;SDS011;57944;48.722;9.316;2022-10-16T14:34:28;6.57;;;4.03;;
2784;SDS011;57944;48.722;9.316;2022-10-16T14:37:01;19.00;;;8.13;;
2784;SDS011;57944;48.722;9.316;2022-10-16T14:39:48;15.73;;;9.83;;
2784;SDS011;57944;48.722;9.316;2022-10-16T14:42:20;10.17;;;6.03;;
2784;SDS011;57944;48.722;9.316;2022-10-16T14:44:56;9.50;;;5.70;;
2784;SDS011;57944;48.722;9.316;2022-10-16T14:47:26;7.90;;;5.20;;
2784;SDS011;57944;48.722;9.316;2022-10-16T14:49:57;12.43;;;5.30;;
2784;SDS011;57944;48.722;9.316;2022-10-16T14:52:27;8.77;;;4.47;;
2784;SDS011;57944;48.722;9.316;2022-10-16T14:54:57;6.30;;;3.30;;
2784;SDS011;57944;48.722;9.316;2022-10-16T14:57:27;4.83;;;2.93;;
2784;SDS011;57944;48.722;9.316;2022-10-16T15:00:09;7.50;;;3.77;;
2784;SDS011;57944;48.722;9.316;2022-10-16T15:02:46;5.13;;;3.00;;
2784;SDS011;57944;48.722;9.316;2022-10-16T15:05:19;5.83;;;3.47;;
2784;SDS011;57944;48.722;9.316;2022-10-16T15:07:52;6.60;;;3.73;;
2784;SDS011;57944;48.722;9.316;2022-10-16T15:10:24;6.40;;;3.83;;
2784;SDS011;57944;48.722;9.316;2022-10-16T15:12:58;7.17;;;4.33;;
2784;SDS011;57944;48.722;9.316;2022-10-16T15:15:37;8.80;;;5.20;;
2784;SDS011;57944;48.722;9.316;2022-10-16T15:18:11;6.23;;;4.37;;
2784;SDS011;57944;48.722;9.316;2022-10-16T15:20:47;5.30;;;3.33;;
2784;SDS011;57944;48.722;9.316;2022-10-16T15:23:20;8.50;;;3.10;;
2784;SDS011;57944;48.722;9.316;2022-10-16T15:26:11;7.40;;;4.50;;
2784;SDS011;57944;48.722;9.316;2022-10-16T15:28:41;5.10;;;3.10;;
2784;SDS011;57944;48.722;9.316;2022-10-16T15:31:14;12.27;;;8.30;;
2784;SDS011;57944;48.722;9.316;2022-10-16T15:33:44;8.00;;;4.10;;
2784;SDS011;57944;48.722;9.316;2022-10-16T15:36:25;8.33;;;3.57;;
2784;SDS011;57944;48.722;9.316;2022-10-16T15:38:57;4.60;;;3.20;;
2784;SDS011;57944;48.722;9.316;2022-10-16T15:41:27;5.67;;;3.37;;
2784;SDS011;57944;48.722;9.316;2022-10-16T15:43:57;7.67;;;4.87;;
2784;SDS011;57944;48.722;9.316;2022-10-16T15:46:30;7.57;;;4.57;;
2784;SDS011;57944;48.722;9.316;2022-10-16T15:49:01;5.87;;;3.47;;
2784;SDS011;57944;48.722;9.316;2022-10-16T15:51:31;5.13;;;3.10;;
2784;SDS011;57944;48.722;9.316;2022-10-16T15:54:01;5.10;;;3.30;;
2784;SDS011;57944;48.722;9.316;2022-10-16T15:56:32;7.40;;;4.30;;
2784;SDS011;57944;48.722;9.316;2022-10-16T15:59:04;7.83;;;4.67;;
2784;SDS011;57944;48.722;9.316;2022-10-16T16:01:37;11.30;;;3.43;;
2784;SDS011;57944;48.722;9.316;2022-10-16T16:04:07;12.73;;;4.23;;